Thunder radar more information blitzortung!


Radar de pluja more information rain snow radar


Visita la nostra xarxa de llocs de meteo:

Template documentation
and downloads

And another site



No particular awareness of the weather is required.    There are no Weather-warnings

Pagina Historial Weather Underground text

Diari Resum Novembre 23, 2017 Unitats:  Imperial    Mètric   Tant
« Previous Dia
SegĂźent Dia »
Diari Setmana Mensual Anual Personalitzada
  Maxima: Minima: Media:
Temperatura: TemperatureC °F 6.0 °F 12.8 °F
Punt de rosada: DewpointC °F 1.9 °F 8.5 °F
Humitat: Humidity % 62 % 75 %
Wind Speed: WindSpeedKMH mph 0.0 mph 3.4 mph
RĂ fegues de vent: WindSpeedGustKMH mph - -
Vent:- - SSW
Pression baro: PressurehPa in 1017.8 in -
Precipitacions: 0.0 in    
Historical Graphs
 
 
Dades de taula per Novembre 23, 2017
Temps Temperatura Punt de rosada Pression baro Vent Wind Speed RĂ fegues de vent Humitat Rainfall Rate (Hourly)
TemperatureC °F DewpointC °F PressurehPa in Calm     Humidity % HourlyPrecipMM in
00:04 8.5 °F 5.6 °F 1017.8 in Calm     82 % 0.0 in
00:05 6.8 °F 4.6 °F 1017.8 in Calm   1.6 mph 86 % 0.0 in
00:09 8.6 °F 5.9 °F 1017.8 in NE 3.7 mph 3.7 mph 83 % 0.0 in
00:14 8.4 °F 5.7 °F 1017.8 in NE 3.7 mph 3.7 mph 83 % 0.0 in
00:45 6.3 °F 4.3 °F 1017.8 in Calm     87 % 0.0 in
00:55 6.4 °F 4.4 °F 1017.8 in Calm     87 % 0.0 in
01:05 6.3 °F 4.1 °F 1017.8 in SW 3.2 mph 3.2 mph 86 % 0.0 in
01:15 6.1 °F 3.8 °F 1017.8 in SW 1.6 mph 3.2 mph 85 % 0.0 in
01:25 6.0 °F 3.7 °F 1017.8 in SW 3.2 mph 4.8 mph 85 % 0.0 in
01:35 6.1 °F 3.8 °F 1017.8 in WSW 1.6 mph 3.2 mph 85 % 0.0 in
01:45 6.1 °F 3.9 °F 1017.8 in Calm     86 % 0.0 in
02:15 6.1 °F 3.9 °F 1018.8 in NNE 1.6 mph 3.2 mph 86 % 0.0 in
02:25 6.4 °F 4.4 °F 1018.8 in WSW 1.6 mph 3.2 mph 87 % 0.0 in
02:35 6.7 °F 4.8 °F 1018.8 in Calm     88 % 0.0 in
02:45 6.8 °F 4.9 °F 1017.8 in West 1.6 mph 3.2 mph 88 % 0.0 in
02:55 7.2 °F 5.5 °F 1017.8 in Calm     89 % 0.0 in
03:05 7.2 °F 5.3 °F 1017.8 in SW 1.6 mph 1.6 mph 88 % 0.0 in
03:15 7.2 °F 5.3 °F 1018.8 in Calm   1.6 mph 88 % 0.0 in
03:25 7.3 °F 5.4 °F 1018.8 in Calm     88 % 0.0 in
03:35 7.4 °F 5.7 °F 1018.8 in Calm   3.2 mph 89 % 0.0 in
03:45 7.3 °F 5.4 °F 1018.8 in SSW 1.6 mph 3.2 mph 88 % 0.0 in
03:55 7.4 °F 5.6 °F 1018.8 in WSW 1.6 mph 3.2 mph 88 % 0.0 in
04:05 7.6 °F 5.7 °F 1018.8 in SW 1.6 mph 3.2 mph 88 % 0.0 in
04:15 7.8 °F 5.9 °F 1018.8 in SW 1.6 mph 3.2 mph 88 % 0.0 in
04:25 8.2 °F 6.5 °F 1018.8 in Calm     89 % 0.0 in
04:35 9.1 °F 7.6 °F 1018.8 in WNW 1.6 mph 1.6 mph 90 % 0.0 in
04:45 9.8 °F 8.1 °F 1018.8 in NE 1.6 mph 3.2 mph 89 % 0.0 in
04:55 10.6 °F 8.7 °F 1018.8 in SE 1.6 mph 3.2 mph 88 % 0.0 in
05:05 10.8 °F 8.6 °F 1018.8 in SW 1.6 mph 3.2 mph 86 % 0.0 in
05:15 11.0 °F 8.4 °F 1019.9 in SSW 3.2 mph 3.2 mph 84 % 0.0 in
05:25 11.7 °F 8.9 °F 1018.8 in South 1.6 mph 4.8 mph 83 % 0.0 in
05:35 12.1 °F 8.9 °F 1018.8 in NNE 1.6 mph 4.8 mph 81 % 0.0 in
05:45 12.0 °F 8.4 °F 1019.9 in NNE 4.8 mph 9.7 mph 79 % 0.0 in
05:55 11.9 °F 8.4 °F 1018.8 in NE 1.6 mph 6.4 mph 79 % 0.0 in
11:57 12.2 °F 8.5 °F 1018.8 in NE 3.7 mph 3.7 mph 78 % 0.0 in
11:58 12.2 °F 8.5 °F 1018.8 in NE 3.7 mph 3.7 mph 78 % 0.0 in
12:03 12.3 °F 8.6 °F 1018.8 in NW 5.6 mph 5.6 mph 78 % 0.0 in
12:08 12.2 °F 8.3 °F 1018.8 in North 3.7 mph 3.7 mph 77 % 0.0 in
12:13 12.3 °F 8.4 °F 1018.8 in North 3.7 mph 3.7 mph 77 % 0.0 in
12:18 12.4 °F 8.3 °F 1018.8 in East 3.7 mph   76 % 0.0 in
12:23 12.5 °F 8.4 °F 1018.8 in NW 3.2 mph   76 % 0.0 in
12:28 12.5 °F 8.4 °F 1018.8 in ENE 3.7 mph 3.7 mph 76 % 0.0 in
12:38 12.7 °F 8.6 °F 1018.8 in NW 3.7 mph 3.7 mph 76 % 0.0 in
12:43 12.9 °F 8.8 °F 1018.8 in North 1.9 mph 1.9 mph 76 % 0.0 in
12:48 13.5 °F 9.3 °F 1018.8 in SW 3.7 mph 3.7 mph 76 % 0.0 in
12:53 14.1 °F 9.9 °F 1018.8 in West 4.2 mph 4.2 mph 76 % 0.0 in
12:58 14.5 °F 10.1 °F 1018.8 in SSE 3.7 mph 3.7 mph 75 % 0.0 in
13:03 14.7 °F 10.3 °F 1018.8 in WSW 3.7 mph   75 % 0.0 in
13:13 15.5 °F 11.1 °F 1018.8 in SW 7.4 mph 7.4 mph 75 % 0.0 in
13:18 15.8 °F 11.2 °F 1018.8 in WSW 3.7 mph 3.7 mph 74 % 0.0 in
13:23 16.1 °F 11.7 °F 1018.8 in SW 5.6 mph 5.6 mph 75 % 0.0 in
13:28 16.4 °F 11.9 °F 1018.8 in SW 7.4 mph 7.4 mph 75 % 0.0 in
13:33 16.6 °F 11.9 °F 1017.8 in SW 7.4 mph 7.4 mph 74 % 0.0 in
13:38 16.7 °F 12.1 °F 1017.8 in SW 9.3 mph 9.3 mph 74 % 0.0 in
13:43 16.9 °F 12.0 °F 1017.8 in WSW 7.4 mph 7.4 mph 73 % 0.0 in
13:48 17.0 °F 11.9 °F 1017.8 in SW 8.7 mph 8.7 mph 72 % 0.0 in
13:53 17.1 °F 12.0 °F 1017.8 in WNW 5.6 mph 5.6 mph 72 % 0.0 in
13:58 17.3 °F 12.2 °F 1017.8 in SW 5.6 mph 5.6 mph 72 % 0.0 in
14:03 17.5 °F 12.2 °F 1017.8 in West 5.0 mph 5.0 mph 71 % 0.0 in
14:08 17.6 °F 12.1 °F 1017.8 in WSW 7.4 mph 7.4 mph 70 % 0.0 in
14:13 17.7 °F 11.9 °F 1017.8 in SW 7.4 mph 7.4 mph 69 % 0.0 in
14:18 17.8 °F 12.1 °F 1017.8 in SW 9.3 mph 9.3 mph 69 % 0.0 in
14:23 17.9 °F 11.9 °F 1017.8 in South 7.4 mph 7.4 mph 68 % 0.0 in
14:28 18.3 °F 12.3 °F 1017.8 in SW 5.6 mph 5.6 mph 68 % 0.0 in
14:38 18.4 °F 12.4 °F 1017.8 in WSW 7.4 mph 7.4 mph 68 % 0.0 in
14:43 18.4 °F 12.4 °F 1017.8 in SW 9.3 mph 9.3 mph 68 % 0.0 in
14:53 18.4 °F 12.2 °F 1017.8 in SW 9.3 mph 9.3 mph 67 % 0.0 in
14:58 18.7 °F 12.4 °F 1017.8 in WSW 9.3 mph 9.3 mph 67 % 0.0 in
15:03 18.8 °F 12.3 °F 1017.8 in SSW 9.3 mph 9.3 mph 66 % 0.0 in
15:08 18.8 °F 12.3 °F 1017.8 in SSW 5.6 mph 5.6 mph 66 % 0.0 in
15:23 19.3 °F 12.1 °F 1017.8 in West 7.4 mph 7.4 mph 63 % 0.0 in
15:28 19.2 °F 12.0 °F 1017.8 in SW 7.4 mph 7.4 mph 63 % 0.0 in
15:33 19.3 °F 12.1 °F 1017.8 in WSW 5.0 mph 5.0 mph 63 % 0.0 in
15:38 19.5 °F 12.3 °F 1017.8 in WSW 5.8 mph 5.8 mph 63 % 0.0 in
15:43 19.6 °F 12.4 °F 1017.8 in SW 5.6 mph 5.6 mph 63 % 0.0 in
15:48 19.6 °F 12.1 °F 1017.8 in SSW 7.4 mph 7.4 mph 62 % 0.0 in
15:53 19.7 °F 12.2 °F 1017.8 in SSW 6.4 mph 6.4 mph 62 % 0.0 in
15:58 19.8 °F 12.3 °F 1017.8 in SW 3.7 mph 3.7 mph 62 % 0.0 in
16:03 19.7 °F 12.2 °F 1017.8 in SW 6.1 mph 6.1 mph 62 % 0.0 in
16:08 19.6 °F 12.1 °F 1017.8 in SW 7.4 mph 7.4 mph 62 % 0.0 in
16:13 19.6 °F 12.1 °F 1017.8 in SW 6.9 mph 6.9 mph 62 % 0.0 in
16:18 19.6 °F 12.1 °F 1017.8 in SSW 6.4 mph 6.4 mph 62 % 0.0 in
16:23 19.5 °F 12.0 °F 1017.8 in SW 7.4 mph 7.4 mph 62 % 0.0 in
16:28 19.3 °F 11.8 °F 1017.8 in SW 5.6 mph 5.6 mph 62 % 0.0 in
16:38 19.1 °F 11.7 °F 1017.8 in SW 3.7 mph 3.7 mph 62 % 0.0 in
16:43 18.9 °F 11.9 °F 1017.8 in SW 3.9 mph 3.9 mph 64 % 0.0 in
16:48 18.8 °F 11.8 °F 1017.8 in WSW 3.7 mph 3.7 mph 64 % 0.0 in
16:58 18.4 °F 11.4 °F 1017.8 in SW 3.7 mph 3.7 mph 64 % 0.0 in
17:03 18.1 °F 11.4 °F 1017.8 in Calm     65 % 0.0 in
17:08 17.9 °F 11.2 °F 1017.8 in West 3.7 mph 3.7 mph 65 % 0.0 in
17:13 17.6 °F 10.9 °F 1017.8 in Calm     65 % 0.0 in
17:28 16.7 °F 10.8 °F 1018.8 in WSW 1.9 mph 1.9 mph 68 % 0.0 in
17:33 16.5 °F 10.6 °F 1017.8 in Calm     68 % 0.0 in
17:38 16.3 °F 10.6 °F 1017.8 in Calm     69 % 0.0 in
17:43 16.1 °F 10.4 °F 1017.8 in Calm     69 % 0.0 in
17:53 15.9 °F 10.4 °F 1018.8 in WSW 3.2 mph 3.2 mph 70 % 0.0 in
18:03 15.2 °F 9.8 °F 1018.8 in West 2.3 mph 2.3 mph 70 % 0.0 in
18:08 15.1 °F 9.9 °F 1018.8 in WSW 3.7 mph 3.7 mph 71 % 0.0 in
18:13 14.9 °F 9.9 °F 1018.8 in SW 3.7 mph   72 % 0.0 in
18:18 14.8 °F 9.8 °F 1018.8 in SW 3.7 mph 3.7 mph 72 % 0.0 in
18:23 14.5 °F 9.7 °F 1018.8 in SW 3.7 mph 3.7 mph 73 % 0.0 in
18:28 14.3 °F 9.5 °F 1018.8 in SW 4.2 mph 4.2 mph 73 % 0.0 in
18:33 14.1 °F 9.3 °F 1018.8 in SW 5.6 mph 5.6 mph 73 % 0.0 in
18:38 14.0 °F 9.2 °F 1018.8 in SW 4.7 mph 4.7 mph 73 % 0.0 in
18:43 14.0 °F 9.4 °F 1018.8 in SW 5.6 mph 5.6 mph 74 % 0.0 in
18:53 14.3 °F 9.9 °F 1018.8 in SW 5.6 mph 5.6 mph 75 % 0.0 in
18:58 14.4 °F 10.2 °F 1018.8 in SW 7.4 mph 7.4 mph 76 % 0.0 in
19:03 14.3 °F 10.1 °F 1019.9 in WSW 5.6 mph 5.6 mph 76 % 0.0 in
19:13 14.2 °F 10.2 °F 1019.9 in WSW 5.6 mph 5.6 mph 77 % 0.0 in
19:18 14.1 °F 10.1 °F 1019.9 in SW 5.0 mph 5.0 mph 77 % 0.0 in
19:23 14.0 °F 10.1 °F 1019.9 in SW 7.4 mph 7.4 mph 77 % 0.0 in
19:28 13.9 °F 10.1 °F 1019.9 in SW 5.6 mph 5.6 mph 78 % 0.0 in
19:33 13.8 °F 10.1 °F 1019.9 in WSW 5.6 mph 5.6 mph 78 % 0.0 in
19:38 13.6 °F 10.0 °F 1019.9 in West 3.7 mph 3.7 mph 79 % 0.0 in
19:43 13.5 °F 9.9 °F 1019.9 in West 3.7 mph 3.7 mph 79 % 0.0 in
19:48 13.4 °F 9.8 °F 1019.9 in WNW 1.9 mph   79 % 0.0 in
19:53 13.3 °F 9.9 °F 1019.9 in West 1.9 mph   80 % 0.0 in
19:58 13.2 °F 9.8 °F 1019.9 in Calm     80 % 0.0 in
20:13 12.9 °F 9.3 °F 1019.9 in West 5.6 mph 5.6 mph 79 % 0.0 in
20:28 13.0 °F 9.6 °F 1019.9 in WSW 3.7 mph 3.7 mph 80 % 0.0 in
20:33 12.9 °F 9.6 °F 1019.9 in WSW 3.7 mph 3.7 mph 80 % 0.0 in
20:38 12.8 °F 9.4 °F 1019.9 in WSW 3.7 mph 3.7 mph 80 % 0.0 in
20:48 12.6 °F 9.4 °F 1019.9 in Calm     81 % 0.0 in
20:58 12.5 °F 9.5 °F 1019.9 in West 2.3 mph 2.3 mph 82 % 0.0 in
20:59 12.5 °F 9.5 °F 1019.9 in SW 3.7 mph 3.7 mph 82 % 0.0 in
21:04 12.5 °F 9.5 °F 1019.9 in WSW 3.7 mph 3.7 mph 82 % 0.0 in
21:05 9.4 °F 4.4 °F 1018.8 in WNW 1.6 mph 3.2 mph 71 % 0.0 in
21:09 12.4 °F 9.4 °F 1019.9 in West 3.5 mph   82 % 0.0 in
21:14 12.2 °F 9.1 °F 1019.9 in WSW 1.9 mph 2.3 mph 81 % 0.0 in
21:15 9.5 °F 3.9 °F 1019.9 in WNW 1.6 mph 1.6 mph 68 % 0.0 in
21:19 12.1 °F 8.9 °F 1019.9 in WSW 1.9 mph   81 % 0.0 in
21:24 11.9 °F 8.7 °F 1019.9 in Calm     81 % 0.0 in
21:25 9.9 °F 4.1 °F 1019.9 in WNW 1.6 mph 3.2 mph 67 % 0.0 in
21:29 11.8 °F 8.7 °F 1019.9 in Calm     81 % 0.0 in
21:35 10.4 °F 4.6 °F 1019.9 in NW 1.6 mph 1.6 mph 67 % 0.0 in
21:39 11.5 °F 8.3 °F 1019.9 in WNW 1.9 mph 1.9 mph 81 % 0.0 in
21:44 11.4 °F 8.1 °F 1019.9 in WSW 3.7 mph 3.7 mph 80 % 0.0 in
21:45 10.2 °F 3.7 °F 1018.8 in Calm   3.2 mph 64 % 0.0 in
21:49 11.2 °F 7.9 °F 1019.9 in West 3.2 mph 3.2 mph 80 % 0.0 in
22:04 11.2 °F 7.5 °F 1019.9 in WSW 1.9 mph 1.9 mph 78 % 0.0 in
22:05 9.2 °F 3.2 °F 1018.8 in ENE 1.6 mph 3.2 mph 66 % 0.0 in
22:19 11.3 °F 7.8 °F 1019.9 in Calm     79 % 0.0 in
22:24 11.2 °F 7.7 °F 1019.9 in Calm     79 % 0.0 in
22:25 8.5 °F 2.9 °F 1018.8 in Calm   3.2 mph 68 % 0.0 in
22:29 10.8 °F 7.3 °F 1019.9 in SSE 2.3 mph 2.3 mph 79 % 0.0 in
22:34 10.6 °F 7.1 °F 1019.9 in SSW 2.6 mph 2.6 mph 79 % 0.0 in
22:35 8.2 °F 2.7 °F 1018.8 in Calm     68 % 0.0 in
22:39 10.3 °F 6.8 °F 1019.9 in Calm     79 % 0.0 in
22:45 8.1 °F 2.8 °F 1018.8 in WNW 3.2 mph 3.2 mph 69 % 0.0 in
22:55 8.1 °F 2.8 °F 1018.8 in Calm   4.8 mph 69 % 0.0 in
23:04 9.7 °F 6.2 °F 1019.9 in WSW 3.9 mph 3.9 mph 79 % 0.0 in
23:05 8.2 °F 2.8 °F 1018.8 in Calm   1.6 mph 69 % 0.0 in
23:14 9.5 °F 6.2 °F 1019.9 in Calm     80 % 0.0 in
23:15 8.7 °F 2.9 °F 1018.8 in West 1.6 mph 3.2 mph 67 % 0.0 in
23:19 9.5 °F 6.2 °F 1019.9 in SW 3.7 mph 3.7 mph 80 % 0.0 in
23:24 9.4 °F 6.1 °F 1019.9 in SW 1.9 mph 1.9 mph 80 % 0.0 in
23:25 8.4 °F 2.6 °F 1018.8 in NNW 4.8 mph 4.8 mph 67 % 0.0 in
23:29 9.4 °F 6.3 °F 1019.9 in Calm     81 % 0.0 in
23:34 9.3 °F 6.2 °F 1019.9 in Calm     81 % 0.0 in
23:35 8.2 °F 2.4 °F 1018.8 in North 1.6 mph 4.8 mph 67 % 0.0 in
23:45 8.1 °F 2.3 °F 1018.8 in NE 1.6 mph 1.6 mph 67 % 0.0 in
23:49 9.2 °F 5.9 °F 1019.9 in Calm     80 % 0.0 in
23:55 7.5 °F 1.9 °F 1018.8 in SSW 4.8 mph 4.8 mph 68 % 0.0 in
23:59 9.1 °F 5.8 °F 1019.9 in NNE 3.7 mph 3.7 mph 80 % 0.0 in
Meteo Sesrovires
Elogis d' Weather Underground - 3.25 mb

Guio original per  Jim McMurry - jmcmurry@mwt.net Adaptat per a la plantilla per  Wim van der Kuil - Leuven-Template.eu

Trobareu la nostra informacio del temps tambe a:

Weather Underground

AWEKAS